Time;durP1;ratioP1;P1;durP2;ratioP2;P2;SDS_P1;SDS_P2;PMS_P1;PMS_P2;Temp;Humidity;BMP_temperature;BMP_pressure;BME280_temperature;BME280_humidity;BME280_pressure;Samples;Min_cycle;Max_cycle;Signal;HPM_P1;HPM_P2
2021/07/12 00:00:18;;;;;;;5.75;2.90;;;;;;;;;;5053820;28;20037;-55
2021/07/12 00:02:43;;;;;;;3.50;2.78;;;;;;;;;;5053352;28;20167;-55
2021/07/12 00:05:09;;;;;;;5.10;2.90;;;;;;;;;;5053416;28;20021;-55
2021/07/12 00:07:35;;;;;;;6.78;3.20;;;;;;;;;;5053236;28;20040;-55
2021/07/12 00:10:00;;;;;;;7.65;3.28;;;;;;;;;;5053240;28;20472;-55
2021/07/12 00:12:25;;;;;;;2.90;2.60;;;;;;;;;;5053109;28;20083;-55
2021/07/12 00:14:51;;;;;;;4.57;2.90;;;;;;;;;;5053266;28;20032;-55
2021/07/12 00:17:16;;;;;;;5.70;3.08;;;;;;;;;;5051724;28;20418;-55
2021/07/12 00:19:41;;;;;;;4.63;2.80;;;;;;;;;;5053074;28;20464;-55
2021/07/12 00:22:07;;;;;;;3.63;2.47;;;;;;;;;;5053142;28;20056;-57
2021/07/12 00:24:32;;;;;;;3.25;2.45;;;;;;;;;;5052926;28;20463;-55
2021/07/12 00:26:57;;;;;;;4.30;3.80;;;;;;;;;;5053031;28;20047;-55
2021/07/12 00:29:23;;;;;;;5.15;3.10;;;;;;;;;;5052884;28;20478;-54
2021/07/12 00:31:48;;;;;;;4.43;3.05;;;;;;;;;;5052941;28;20489;-55
2021/07/12 00:34:14;;;;;;;5.68;2.83;;;;;;;;;;5051579;28;20159;-54
2021/07/12 00:36:39;;;;;;;4.72;2.80;;;;;;;;;;5052538;28;20035;-54
2021/07/12 00:39:06;;;;;;;5.57;3.20;;;;;;;;;;5051560;28;20041;-56
2021/07/12 00:41:31;;;;;;;3.90;3.15;;;;;;;;;;5052892;28;20025;-55
2021/07/12 00:43:57;;;;;;;6.68;3.28;;;;;;;;;;5067989;28;20029;-55
2021/07/12 00:46:22;;;;;;;4.35;2.58;;;;;;;;;;5052688;28;20375;-55
2021/07/12 00:48:48;;;;;;;2.83;2.40;;;;;;;;;;5051270;28;20032;-55
2021/07/12 00:51:14;;;;;;;6.03;2.85;;;;;;;;;;5052480;28;20099;-54
2021/07/12 00:53:39;;;;;;;6.13;3.20;;;;;;;;;;5067950;28;20052;-55
2021/07/12 00:56:05;;;;;;;5.43;4.15;;;;;;;;;;5051216;28;20423;-55
2021/07/12 00:58:31;;;;;;;5.15;3.30;;;;;;;;;;5052250;28;20033;-54
2021/07/12 01:00:58;;;;;;;6.50;3.30;;;;;;;;;;5050994;28;20096;-55
2021/07/12 01:03:25;;;;;;;4.38;3.10;;;;;;;;;;5050632;28;20029;-55
2021/07/12 01:05:51;;;;;;;5.03;3.45;;;;;;;;;;5051139;28;20020;-54
2021/07/12 01:08:17;;;;;;;5.07;2.70;;;;;;;;;;5050959;28;20053;-55
2021/07/12 01:11:09;;;;;;;5.28;3.45;;;;;;;;;;5051136;28;20013;-55
2021/07/12 01:13:57;;;;;;;5.20;2.88;;;;;;;;;;5052571;28;20435;-55
2021/07/12 01:16:29;;;;;;;7.20;3.58;;;;;;;;;;5052201;28;20029;-55
2021/07/12 01:18:57;;;;;;;6.45;3.28;;;;;;;;;;5052477;28;20040;-55
2021/07/12 01:21:41;;;;;;;7.55;3.28;;;;;;;;;;5052117;28;20039;-55
2021/07/12 01:24:25;;;;;;;5.28;3.17;;;;;;;;;;5052532;28;20020;-54
2021/07/12 01:27:09;;;;;;;5.57;3.25;;;;;;;;;;5052105;28;20083;-55
2021/07/12 01:29:38;;;;;;;9.15;3.13;;;;;;;;;;5052075;28;20021;-55
2021/07/12 01:32:22;;;;;;;4.68;3.25;;;;;;;;;;5067630;28;20086;-55
2021/07/12 01:34:57;;;;;;;5.68;3.83;;;;;;;;;;5052328;28;20428;-55
2021/07/12 01:37:28;;;;;;;5.03;3.58;;;;;;;;;;5051971;28;20287;-55
2021/07/12 01:40:03;;;;;;;5.57;3.50;;;;;;;;;;5052106;28;20029;-55
2021/07/12 01:42:52;;;;;;;4.45;3.42;;;;;;;;;;5050627;28;20033;-55
2021/07/12 01:45:18;;;;;;;4.53;3.30;;;;;;;;;;5050437;28;20037;-55
2021/07/12 01:47:56;;;;;;;5.43;3.28;;;;;;;;;;5050512;28;20454;-55
2021/07/12 01:50:41;;;;;;;8.18;3.70;;;;;;;;;;5050456;28;20037;-55
2021/07/12 01:53:18;;;;;;;4.25;2.80;;;;;;;;;;5067463;28;20028;-55
2021/07/12 01:55:55;;;;;;;6.57;3.58;;;;;;;;;;5051827;28;20515;-55
2021/07/12 01:58:42;;;;;;;4.82;3.25;;;;;;;;;;5067235;28;20043;-56
2021/07/12 02:01:12;;;;;;;4.22;2.83;;;;;;;;;;5050550;28;20025;-55
2021/07/12 02:03:38;;;;;;;5.25;3.17;;;;;;;;;;5051701;28;20037;-55
2021/07/12 02:06:07;;;;;;;4.15;2.95;;;;;;;;;;5052099;28;20037;-55
2021/07/12 02:08:39;;;;;;;5.00;2.97;;;;;;;;;;5050438;28;20013;-56
2021/07/12 02:11:06;;;;;;;5.53;3.33;;;;;;;;;;5050402;28;20095;-55
2021/07/12 02:13:36;;;;;;;7.03;3.33;;;;;;;;;;5068797;28;20044;-56
2021/07/12 02:16:11;;;;;;;5.68;3.85;;;;;;;;;;5054173;28;20036;-55
2021/07/12 02:18:39;;;;;;;6.00;3.10;;;;;;;;;;5070631;28;20495;-56
2021/07/12 02:21:34;;;;;;;4.75;3.40;;;;;;;;;;5045573;28;20096;-55
2021/07/12 02:24:20;;;;;;;7.00;3.90;;;;;;;;;;5070595;28;20043;-55
2021/07/12 02:26:48;;;;;;;4.22;3.40;;;;;;;;;;5055265;28;20029;-55
2021/07/12 02:29:14;;;;;;;7.20;3.20;;;;;;;;;;5054035;28;20021;-55
2021/07/12 02:31:40;;;;;;;7.35;3.60;;;;;;;;;;5053827;28;20036;-55
2021/07/12 02:34:08;;;;;;;4.93;3.10;;;;;;;;;;5053872;28;20376;-55
2021/07/12 02:36:39;;;;;;;7.18;3.75;;;;;;;;;;5053637;28;20028;-55
2021/07/12 02:39:09;;;;;;;5.75;2.90;;;;;;;;;;5070471;28;20445;-55
2021/07/12 02:41:36;;;;;;;4.10;3.00;;;;;;;;;;5054859;28;20044;-55
2021/07/12 02:44:04;;;;;;;5.15;3.30;;;;;;;;;;5053769;28;20082;-55
2021/07/12 02:46:31;;;;;;;5.68;3.53;;;;;;;;;;5054789;28;20013;-55
2021/07/12 02:48:58;;;;;;;5.47;2.88;;;;;;;;;;5054894;28;20107;-55
2021/07/12 02:51:46;;;;;;;5.00;3.22;;;;;;;;;;5053335;28;20234;-55
2021/07/12 02:54:13;;;;;;;8.82;3.25;;;;;;;;;;5053295;28;20044;-55
2021/07/12 02:56:41;;;;;;;6.22;3.80;;;;;;;;;;5053277;28;20017;-55
2021/07/12 02:59:06;;;;;;;5.70;3.97;;;;;;;;;;5054642;28;20498;-55
2021/07/12 03:01:31;;;;;;;4.07;3.22;;;;;;;;;;5054895;28;20021;-55
2021/07/12 03:03:57;;;;;;;8.68;3.97;;;;;;;;;;5054542;28;20033;-55
2021/07/12 03:06:28;;;;;;;10.73;3.85;;;;;;;;;;5053183;28;20036;-55
2021/07/12 03:09:06;;;;;;;5.22;3.55;;;;;;;;;;5054541;28;20047;-55
2021/07/12 03:11:46;;;;;;;9.77;4.10;;;;;;;;;;5054675;28;20029;-56
2021/07/12 03:14:32;;;;;;;3.90;2.85;;;;;;;;;;5054627;28;20032;-55
2021/07/12 03:16:58;;;;;;;5.28;3.20;;;;;;;;;;5053030;28;20118;-56
2021/07/12 03:19:25;;;;;;;5.88;3.95;;;;;;;;;;5052947;28;20387;-55
2021/07/12 03:21:53;;;;;;;7.63;4.07;;;;;;;;;;5069633;28;20033;-55
2021/07/12 03:24:19;;;;;;;5.85;3.15;;;;;;;;;;5052431;28;20082;-54
2021/07/12 03:26:52;;;;;;;4.90;3.17;;;;;;;;;;5052747;28;20025;-55
2021/07/12 03:29:19;;;;;;;6.40;2.95;;;;;;;;;;5036286;28;20510;-55
2021/07/12 03:31:45;;;;;;;4.75;3.67;;;;;;;;;;5052761;28;20021;-54
2021/07/12 03:34:13;;;;;;;5.05;3.42;;;;;;;;;;5069681;28;20048;-55
2021/07/12 03:36:40;;;;;;;5.28;3.28;;;;;;;;;;5052598;28;20013;-55
2021/07/12 03:39:06;;;;;;;4.60;3.33;;;;;;;;;;5052681;28;20127;-54
2021/07/12 03:41:35;;;;;;;5.50;3.13;;;;;;;;;;5053844;28;20100;-55
2021/07/12 03:44:01;;;;;;;3.53;2.88;;;;;;;;;;5053916;28;20108;-55
2021/07/12 03:46:27;;;;;;;6.55;3.97;;;;;;;;;;5052431;28;20112;-54
2021/07/12 03:48:52;;;;;;;10.00;3.70;;;;;;;;;;5052412;28;20475;-53
2021/07/12 03:51:22;;;;;;;5.38;3.35;;;;;;;;;;5052288;28;20588;-55
2021/07/12 03:53:50;;;;;;;5.25;3.78;;;;;;;;;;5052370;28;20036;-55
2021/07/12 03:56:15;;;;;;;8.35;3.67;;;;;;;;;;5053767;28;20045;-55
2021/07/12 03:58:41;;;;;;;4.45;3.47;;;;;;;;;;5053727;28;20044;-55
2021/07/12 04:01:06;;;;;;;5.57;3.53;;;;;;;;;;5053841;28;20455;-55
2021/07/12 04:03:32;;;;;;;4.68;3.83;;;;;;;;;;5053269;28;20044;-54
2021/07/12 04:05:58;;;;;;;5.03;3.40;;;;;;;;;;5053749;28;20021;-54
2021/07/12 04:08:23;;;;;;;6.40;3.22;;;;;;;;;;5053290;28;20059;-55
2021/07/12 04:10:49;;;;;;;5.25;3.50;;;;;;;;;;5053241;28;20009;-55
2021/07/12 04:13:14;;;;;;;4.30;3.47;;;;;;;;;;5053295;28;20033;-55
2021/07/12 04:15:40;;;;;;;4.30;3.65;;;;;;;;;;5053221;28;20419;-54
2021/07/12 04:18:05;;;;;;;7.50;3.30;;;;;;;;;;5051881;28;20048;-55
2021/07/12 04:20:31;;;;;;;5.70;3.33;;;;;;;;;;5053039;28;20104;-55
2021/07/12 04:22:57;;;;;;;6.88;3.97;;;;;;;;;;5053393;28;20029;-55
2021/07/12 04:25:23;;;;;;;6.00;3.80;;;;;;;;;;5053192;28;20074;-55
2021/07/12 04:27:48;;;;;;;7.00;3.85;;;;;;;;;;5052953;28;20372;-55
2021/07/12 04:30:14;;;;;;;10.27;3.72;;;;;;;;;;5053075;28;20013;-56
2021/07/12 04:32:39;;;;;;;6.20;3.13;;;;;;;;;;5052724;28;20036;-55
2021/07/12 04:35:05;;;;;;;5.82;3.80;;;;;;;;;;5053279;28;20017;-54
2021/07/12 04:37:30;;;;;;;7.65;4.13;;;;;;;;;;5052595;28;20064;-54
2021/07/12 04:39:56;;;;;;;8.02;3.63;;;;;;;;;;5052825;28;20037;-54
2021/07/12 04:42:21;;;;;;;4.88;4.05;;;;;;;;;;5052853;28;20024;-54
2021/07/12 04:44:47;;;;;;;6.13;4.28;;;;;;;;;;5052538;28;20112;-54
2021/07/12 04:47:12;;;;;;;5.60;3.45;;;;;;;;;;5052659;28;20061;-54
2021/07/12 04:49:37;;;;;;;5.55;4.10;;;;;;;;;;5052094;28;20027;-55
2021/07/12 04:52:03;;;;;;;5.70;3.05;;;;;;;;;;5052651;28;20113;-55
2021/07/12 04:54:28;;;;;;;6.22;3.65;;;;;;;;;;5052748;28;20029;-54
2021/07/12 04:56:54;;;;;;;6.47;3.40;;;;;;;;;;5052652;28;20061;-55
2021/07/12 04:59:25;;;;;;;6.47;3.72;;;;;;;;;;5052613;28;20523;-55
2021/07/12 05:01:51;;;;;;;6.03;3.50;;;;;;;;;;5052429;28;20493;-54
2021/07/12 05:04:16;;;;;;;7.43;4.05;;;;;;;;;;5052708;28;20024;-55
2021/07/12 05:06:41;;;;;;;6.63;4.20;;;;;;;;;;5052223;28;20489;-55
2021/07/12 05:09:07;;;;;;;5.20;3.33;;;;;;;;;;5052345;28;20017;-55
2021/07/12 05:11:33;;;;;;;5.95;3.47;;;;;;;;;;5052591;28;20033;-54
2021/07/12 05:13:59;;;;;;;6.13;3.85;;;;;;;;;;5052621;28;20441;-55
2021/07/12 05:16:24;;;;;;;4.20;3.53;;;;;;;;;;5052109;28;20040;-55
2021/07/12 05:18:50;;;;;;;5.95;3.55;;;;;;;;;;5052162;28;20081;-55
2021/07/12 05:21:15;;;;;;;5.10;3.42;;;;;;;;;;5052381;28;20060;-55
2021/07/12 05:23:41;;;;;;;6.07;3.80;;;;;;;;;;5052231;28;20095;-55
2021/07/12 05:26:06;;;;;;;5.85;3.75;;;;;;;;;;5052531;28;20059;-55
2021/07/12 05:28:32;;;;;;;7.32;3.65;;;;;;;;;;5050802;28;20017;-55
2021/07/12 05:30:57;;;;;;;6.72;3.55;;;;;;;;;;5052469;28;20025;-57
2021/07/12 05:33:23;;;;;;;7.25;4.50;;;;;;;;;;5052480;28;20021;-54
2021/07/12 05:35:48;;;;;;;6.25;4.07;;;;;;;;;;5052005;28;20029;-54
2021/07/12 05:38:13;;;;;;;4.43;3.50;;;;;;;;;;5052026;28;20029;-55
2021/07/12 05:40:39;;;;;;;5.63;3.67;;;;;;;;;;5051998;28;20029;-55
2021/07/12 05:43:04;;;;;;;4.35;3.25;;;;;;;;;;5052377;28;20463;-55
2021/07/12 05:45:30;;;;;;;6.28;3.55;;;;;;;;;;5052185;28;20376;-54
2021/07/12 05:47:55;;;;;;;5.55;3.40;;;;;;;;;;5052891;28;20460;-56
2021/07/12 05:50:20;;;;;;;8.55;4.55;;;;;;;;;;5071218;28;20052;-55
2021/07/12 05:52:46;;;;;;;5.07;3.90;;;;;;;;;;5055888;28;20115;-55
2021/07/12 05:55:11;;;;;;;5.40;3.63;;;;;;;;;;5055992;28;20108;-55
2021/07/12 05:57:37;;;;;;;6.30;3.78;;;;;;;;;;5055573;28;20036;-56
2021/07/12 06:00:06;;;;;;;4.57;3.80;;;;;;;;;;5055814;28;20029;-55
2021/07/12 06:02:38;;;;;;;5.95;4.15;;;;;;;;;;5055730;28;20021;-54
2021/07/12 06:05:04;;;;;;;5.80;4.18;;;;;;;;;;5055872;28;20083;-54
2021/07/12 06:07:29;;;;;;;5.47;4.60;;;;;;;;;;5055569;28;20021;-54
2021/07/12 06:09:54;;;;;;;5.50;4.32;;;;;;;;;;5055706;28;20032;-54
2021/07/12 06:12:20;;;;;;;8.80;3.78;;;;;;;;;;5055742;28;20025;-55
2021/07/12 06:14:45;;;;;;;5.97;3.97;;;;;;;;;;5055550;28;20040;-53
2021/07/12 06:17:11;;;;;;;5.63;3.42;;;;;;;;;;5054112;28;20017;-55
2021/07/12 06:19:36;;;;;;;4.75;3.47;;;;;;;;;;5055298;28;20037;-55
2021/07/12 06:22:02;;;;;;;7.15;3.30;;;;;;;;;;5055796;28;20017;-54
2021/07/12 06:24:27;;;;;;;5.35;4.00;;;;;;;;;;5055341;28;20468;-55
2021/07/12 06:26:52;;;;;;;6.40;3.90;;;;;;;;;;5055335;28;20021;-55
2021/07/12 06:29:20;;;;;;;6.85;3.92;;;;;;;;;;5055320;28;20190;-55
2021/07/12 06:31:46;;;;;;;4.95;3.35;;;;;;;;;;5055412;28;20036;-55
2021/07/12 06:34:11;;;;;;;4.80;3.40;;;;;;;;;;5055205;28;20391;-55
2021/07/12 06:36:37;;;;;;;6.05;3.80;;;;;;;;;;5055254;28;20036;-55
2021/07/12 06:39:03;;;;;;;4.47;3.25;;;;;;;;;;5055395;28;20037;-55
2021/07/12 06:41:28;;;;;;;4.63;3.38;;;;;;;;;;5054946;28;20613;-55
2021/07/12 06:43:55;;;;;;;8.43;3.92;;;;;;;;;;5054999;28;20048;-55
2021/07/12 06:46:27;;;;;;;;;;;;;;;;;;5053970;28;20017;-55
2021/07/12 06:48:52;;;;;;;5.82;3.85;;;;;;;;;;5070261;28;20251;-54
2021/07/12 06:51:17;;;;;;;6.03;4.53;;;;;;;;;;5054830;28;20048;-54
2021/07/12 06:53:43;;;;;;;8.23;4.05;;;;;;;;;;5054720;28;20436;-54
2021/07/12 06:56:09;;;;;;;5.20;3.83;;;;;;;;;;5053439;28;20066;-55
2021/07/12 06:58:34;;;;;;;5.82;3.35;;;;;;;;;;5054639;28;20129;-54
2021/07/12 07:00:59;;;;;;;5.43;4.03;;;;;;;;;;5053381;28;20021;-55
2021/07/12 07:03:25;;;;;;;5.53;2.97;;;;;;;;;;5070100;28;20098;-55
2021/07/12 07:05:50;;;;;;;5.18;3.90;;;;;;;;;;5054580;28;20098;-55
2021/07/12 07:08:35;;;;;;;5.10;3.67;;;;;;;;;;5054765;28;20033;-55
2021/07/12 07:11:01;;;;;;;5.43;3.58;;;;;;;;;;5054747;28;20516;-55
2021/07/12 07:13:26;;;;;;;4.53;3.70;;;;;;;;;;5054343;28;20062;-55
2021/07/12 07:15:57;;;;;;;5.68;3.38;;;;;;;;;;5053111;28;20029;-54
2021/07/12 07:18:23;;;;;;;6.82;3.92;;;;;;;;;;5069623;28;20099;-55
2021/07/12 07:20:48;;;;;;;7.15;4.38;;;;;;;;;;5054241;28;20098;-55
2021/07/12 07:23:14;;;;;;;5.47;4.22;;;;;;;;;;5053066;28;20106;-55
2021/07/12 07:25:39;;;;;;;5.68;4.32;;;;;;;;;;5054144;28;20379;-54
2021/07/12 07:28:05;;;;;;;4.03;3.58;;;;;;;;;;5069660;28;20086;-55
2021/07/12 07:30:30;;;;;;;3.80;3.05;;;;;;;;;;5053959;28;20087;-55
2021/07/12 07:32:56;;;;;;;5.78;4.57;;;;;;;;;;5053171;28;20039;-55
2021/07/12 07:35:21;;;;;;;4.80;3.55;;;;;;;;;;5054100;28;20530;-55
2021/07/12 07:37:47;;;;;;;6.68;4.72;;;;;;;;;;5053684;28;20111;-55
2021/07/12 07:40:13;;;;;;;7.72;4.10;;;;;;;;;;5054025;28;20021;-55
2021/07/12 07:42:38;;;;;;;6.60;4.78;;;;;;;;;;5053871;28;20039;-55
2021/07/12 07:45:06;;;;;;;6.07;4.50;;;;;;;;;;5054107;28;20374;-55
2021/07/12 07:47:31;;;;;;;5.47;4.28;;;;;;;;;;5053681;28;20548;-55
2021/07/12 07:49:56;;;;;;;6.82;5.10;;;;;;;;;;5053565;28;20045;-55
2021/07/12 07:52:22;;;;;;;9.55;3.80;;;;;;;;;;5053720;28;20116;-55
2021/07/12 07:54:47;;;;;;;9.13;4.20;;;;;;;;;;5053627;28;20028;-56
2021/07/12 07:57:12;;;;;;;10.23;4.95;;;;;;;;;;5053801;28;20029;-55
2021/07/12 07:59:38;;;;;;;5.43;3.97;;;;;;;;;;5053721;28;20031;-55
2021/07/12 08:02:03;;;;;;;8.77;3.72;;;;;;;;;;5053514;28;20051;-55
2021/07/12 08:04:29;;;;;;;7.03;4.25;;;;;;;;;;5053488;28;20070;-55
2021/07/12 08:06:55;;;;;;;5.75;4.00;;;;;;;;;;5053654;28;20029;-55
2021/07/12 08:09:21;;;;;;;6.65;4.15;;;;;;;;;;5052145;28;20103;-55
2021/07/12 08:11:48;;;;;;;6.70;4.35;;;;;;;;;;5052996;28;20123;-55
2021/07/12 08:14:13;;;;;;;6.63;4.13;;;;;;;;;;5052033;28;20017;-55
2021/07/12 08:16:39;;;;;;;12.73;4.78;;;;;;;;;;5053479;28;20442;-55
2021/07/12 08:19:04;;;;;;;5.30;3.88;;;;;;;;;;5053146;28;20459;-57
2021/07/12 08:21:30;;;;;;;5.60;3.88;;;;;;;;;;5053032;28;20357;-55
2021/07/12 08:23:55;;;;;;;14.88;3.83;;;;;;;;;;5053194;28;20032;-55
2021/07/12 08:26:20;;;;;;;5.00;4.03;;;;;;;;;;5052888;28;20060;-55
2021/07/12 08:28:46;;;;;;;6.90;3.67;;;;;;;;;;5053000;28;20013;-54
2021/07/12 08:31:12;;;;;;;5.38;3.72;;;;;;;;;;5053379;28;20058;-55
2021/07/12 08:33:38;;;;;;;4.72;3.17;;;;;;;;;;5053057;28;20025;-56
2021/07/12 08:36:03;;;;;;;6.28;4.55;;;;;;;;;;5053188;28;20032;-55
2021/07/12 08:38:28;;;;;;;6.95;4.63;;;;;;;;;;5052671;28;20028;-56
2021/07/12 08:40:55;;;;;;;11.13;4.40;;;;;;;;;;5051822;28;20032;-55
2021/07/12 08:43:21;;;;;;;6.07;4.35;;;;;;;;;;5052821;28;20017;-55
2021/07/12 08:45:46;;;;;;;6.72;4.15;;;;;;;;;;5052526;28;20078;-55
2021/07/12 08:48:14;;;;;;;6.68;4.35;;;;;;;;;;5052742;28;20017;-55
2021/07/12 08:50:39;;;;;;;5.93;4.00;;;;;;;;;;5052376;28;20495;-56
2021/07/12 08:53:05;;;;;;;7.32;4.68;;;;;;;;;;5052641;28;20079;-55
2021/07/12 08:55:30;;;;;;;5.32;3.47;;;;;;;;;;5052725;28;20054;-56
2021/07/12 08:58:07;;;;;;;5.63;4.32;;;;;;;;;;5052413;28;20049;-55
2021/07/12 09:00:35;;;;;;;5.45;3.63;;;;;;;;;;5052439;28;20032;-56
2021/07/12 09:03:17;;;;;;;6.43;3.80;;;;;;;;;;5052316;28;20357;-55
2021/07/12 09:06:09;;;;;;;6.32;3.58;;;;;;;;;;5052598;28;20041;-55
2021/07/12 09:08:55;;;;;;;7.03;5.28;;;;;;;;;;5051040;28;20041;-55
2021/07/12 09:11:25;;;;;;;6.85;5.00;;;;;;;;;;5051937;28;20041;-55
2021/07/12 09:13:53;;;;;;;6.97;4.25;;;;;;;;;;5052251;28;20025;-56
2021/07/12 09:16:28;;;;;;;6.32;3.35;;;;;;;;;;5052075;28;20009;-55
2021/07/12 09:19:07;;;;;;;5.65;4.43;;;;;;;;;;5052188;28;20040;-55
2021/07/12 09:21:36;;;;;;;6.93;4.38;;;;;;;;;;5052341;28;20033;-55
2021/07/12 09:24:11;;;;;;;5.50;3.70;;;;;;;;;;5050181;28;20028;-56
2021/07/12 09:26:39;;;;;;;7.20;4.28;;;;;;;;;;5052209;28;20040;-55
2021/07/12 09:29:04;;;;;;;5.55;4.30;;;;;;;;;;5052381;28;20013;-56
2021/07/12 09:31:32;;;;;;;8.98;4.38;;;;;;;;;;5051803;28;20367;-55
2021/07/12 09:34:01;;;;;;;5.18;4.03;;;;;;;;;;5052006;28;20010;-55
2021/07/12 09:36:30;;;;;;;4.72;3.90;;;;;;;;;;5052052;28;20048;-55
2021/07/12 09:38:55;;;;;;;5.90;4.10;;;;;;;;;;5051948;28;20112;-55
2021/07/12 09:41:27;;;;;;;6.53;4.13;;;;;;;;;;5052313;28;20523;-55
2021/07/12 09:43:59;;;;;;;5.00;4.32;;;;;;;;;;5051007;28;20082;-55
2021/07/12 09:46:31;;;;;;;3.97;3.33;;;;;;;;;;5052076;28;20382;-55
2021/07/12 09:49:06;;;;;;;5.55;3.78;;;;;;;;;;5051817;28;20476;-56
2021/07/12 09:51:33;;;;;;;4.03;3.35;;;;;;;;;;5051735;28;20041;-55
2021/07/12 09:53:59;;;;;;;4.10;2.88;;;;;;;;;;5052195;28;20029;-55
2021/07/12 09:56:27;;;;;;;5.00;3.58;;;;;;;;;;5051960;28;20490;-55
2021/07/12 09:58:55;;;;;;;4.00;3.60;;;;;;;;;;5051904;28;20356;-54
2021/07/12 10:01:24;;;;;;;4.35;3.10;;;;;;;;;;5051855;28;20025;-55
2021/07/12 10:03:49;;;;;;;4.50;3.80;;;;;;;;;;5051846;28;20031;-55
2021/07/12 10:06:15;;;;;;;3.55;3.08;;;;;;;;;;5051816;28;20372;-55
2021/07/12 10:08:41;;;;;;;5.82;2.83;;;;;;;;;;5051790;28;20471;-56
2021/07/12 10:11:06;;;;;;;3.25;2.95;;;;;;;;;;5052013;28;20082;-56
2021/07/12 10:13:31;;;;;;;5.53;3.17;;;;;;;;;;5051794;28;20017;-54
2021/07/12 10:15:57;;;;;;;5.10;3.75;;;;;;;;;;5051770;28;20486;-55
2021/07/12 10:18:25;;;;;;;4.78;3.78;;;;;;;;;;5051898;28;20033;-55
2021/07/12 10:20:51;;;;;;;4.85;3.38;;;;;;;;;;5051634;28;20391;-55
2021/07/12 10:23:18;;;;;;;4.18;2.72;;;;;;;;;;5051694;28;20020;-55
2021/07/12 10:25:48;;;;;;;3.22;2.92;;;;;;;;;;5067038;28;20021;-55
2021/07/12 10:28:14;;;;;;;4.53;3.15;;;;;;;;;;5051630;28;20106;-55
2021/07/12 10:30:47;;;;;;;10.00;3.67;;;;;;;;;;5051570;28;20021;-55
2021/07/12 10:33:14;;;;;;;4.95;3.03;;;;;;;;;;5051643;28;20495;-55
2021/07/12 10:35:44;;;;;;;3.42;2.45;;;;;;;;;;5054579;28;20049;-55
2021/07/12 10:38:10;;;;;;;4.47;3.05;;;;;;;;;;5055380;28;20033;-55
2021/07/12 10:40:42;;;;;;;3.03;2.70;;;;;;;;;;5055027;28;20496;-56
2021/07/12 10:43:08;;;;;;;2.80;2.50;;;;;;;;;;5055307;28;20107;-55
2021/07/12 10:45:34;;;;;;;2.67;2.47;;;;;;;;;;5070383;28;20575;-55
2021/07/12 10:48:05;;;;;;;4.18;2.42;;;;;;;;;;5054951;28;20040;-56
2021/07/12 10:50:41;;;;;;;3.75;2.78;;;;;;;;;;5054608;28;20480;-55
2021/07/12 10:53:15;;;;;;;3.80;2.80;;;;;;;;;;5055097;28;20040;-55
2021/07/12 10:55:44;;;;;;;3.08;2.75;;;;;;;;;;5053439;28;20069;-55
2021/07/12 10:58:19;;;;;;;3.33;2.80;;;;;;;;;;5054681;28;20047;-55
2021/07/12 11:00:45;;;;;;;2.72;2.15;;;;;;;;;;5054921;28;20029;-55
2021/07/12 11:03:29;;;;;;;4.05;2.72;;;;;;;;;;5054657;28;20025;-55
2021/07/12 11:05:55;;;;;;;3.40;2.78;;;;;;;;;;5054569;28;20036;-55
2021/07/12 11:08:39;;;;;;;5.05;2.70;;;;;;;;;;5053307;28;20025;-55
2021/07/12 11:11:04;;;;;;;3.92;2.90;;;;;;;;;;5054418;28;20029;-55
2021/07/12 11:13:48;;;;;;;5.35;2.85;;;;;;;;;;5054731;28;20021;-55
2021/07/12 11:16:16;;;;;;;3.30;2.50;;;;;;;;;;5053121;28;20022;-55
2021/07/12 11:18:41;;;;;;;4.88;2.85;;;;;;;;;;5052942;28;20029;-54
2021/07/12 11:21:09;;;;;;;2.78;2.50;;;;;;;;;;5054620;28;20482;-55
2021/07/12 11:23:40;;;;;;;4.20;3.08;;;;;;;;;;5053057;28;20021;-54
2021/07/12 11:26:23;;;;;;;5.45;3.53;;;;;;;;;;5054149;28;20032;-55
2021/07/12 11:28:52;;;;;;;4.20;3.22;;;;;;;;;;5054186;28;20050;-55
2021/07/12 11:31:36;;;;;;;4.82;3.00;;;;;;;;;;5054177;28;20031;-54
2021/07/12 11:34:02;;;;;;;3.85;2.75;;;;;;;;;;5054364;28;20064;-54
2021/07/12 11:36:27;;;;;;;3.80;2.67;;;;;;;;;;5054012;28;20083;-54
2021/07/12 11:38:52;;;;;;;4.88;2.15;;;;;;;;;;5069099;28;20051;-54
2021/07/12 11:41:24;;;;;;;3.58;3.15;;;;;;;;;;5054063;28;20009;-55
2021/07/12 11:44:09;;;;;;;5.10;2.75;;;;;;;;;;5053743;28;20052;-55
2021/07/12 11:46:35;;;;;;;3.25;2.72;;;;;;;;;;5051774;28;20146;-55
2021/07/12 11:49:05;;;;;;;5.75;3.10;;;;;;;;;;5053761;28;20029;-54
2021/07/12 11:51:31;;;;;;;4.43;4.03;;;;;;;;;;5053610;28;20041;-55
2021/07/12 11:53:56;;;;;;;3.60;2.10;;;;;;;;;;5053668;28;20036;-55
2021/07/12 11:56:21;;;;;;;6.13;3.55;;;;;;;;;;5053715;28;20068;-54
2021/07/12 11:58:56;;;;;;;5.88;3.53;;;;;;;;;;5053523;28;20029;-54
2021/07/12 12:01:23;;;;;;;4.75;3.45;;;;;;;;;;5053855;28;20123;-56
2021/07/12 12:03:58;;;;;;;4.20;2.95;;;;;;;;;;5053593;28;20021;-55
2021/07/12 12:06:24;;;;;;;4.40;3.45;;;;;;;;;;5053609;28;20033;-55
2021/07/12 12:09:16;;;;;;;3.78;2.95;;;;;;;;;;5052068;28;20098;-55
2021/07/12 12:11:42;;;;;;;3.53;2.70;;;;;;;;;;5052178;28;20037;-54
2021/07/12 12:14:08;;;;;;;4.43;2.90;;;;;;;;;;5053301;28;20064;-55
2021/07/12 12:16:33;;;;;;;3.38;2.60;;;;;;;;;;5053514;28;20464;-55
2021/07/12 12:19:07;;;;;;;5.68;3.05;;;;;;;;;;5053222;28;20483;-54
2021/07/12 12:21:32;;;;;;;3.05;2.42;;;;;;;;;;5053054;28;20029;-53
2021/07/12 12:23:57;;;;;;;6.63;3.22;;;;;;;;;;5053253;28;20092;-55
2021/07/12 12:26:25;;;;;;;5.40;2.92;;;;;;;;;;5053123;28;20029;-55
2021/07/12 12:28:54;;;;;;;4.05;3.03;;;;;;;;;;5052964;28;20467;-54
2021/07/12 12:31:24;;;;;;;8.65;3.08;;;;;;;;;;5053085;28;20059;-54
2021/07/12 12:34:07;;;;;;;3.95;3.55;;;;;;;;;;5052893;28;20017;-55
2021/07/12 12:36:42;;;;;;;4.82;3.67;;;;;;;;;;5051481;28;20033;-54
2021/07/12 12:39:14;;;;;;;3.45;2.72;;;;;;;;;;5053152;28;20437;-54
2021/07/12 12:41:47;;;;;;;5.72;2.75;;;;;;;;;;5051475;28;20120;-56
2021/07/12 12:44:12;;;;;;;;;;;;;;;;;;5053275;28;20029;-55
2021/07/12 12:46:40;;;;;;;3.70;3.20;;;;;;;;;;5052640;28;19967;-55
2021/07/12 12:49:12;;;;;;;5.43;3.50;;;;;;;;;;5053018;28;20032;-55
2021/07/12 12:51:46;;;;;;;4.30;2.65;;;;;;;;;;5052377;28;20495;-55
2021/07/12 12:54:12;;;;;;;3.10;2.00;;;;;;;;;;5052973;28;20025;-55
2021/07/12 12:56:49;;;;;;;5.97;3.58;;;;;;;;;;5052717;28;20432;-54
2021/07/12 12:59:15;;;;;;;2.92;2.47;;;;;;;;;;5051881;28;20037;-54
2021/07/12 13:01:44;;;;;;;3.38;2.97;;;;;;;;;;5052389;28;20455;-54
2021/07/12 13:04:09;;;;;;;3.85;3.10;;;;;;;;;;5052423;28;20024;-55
2021/07/12 13:06:38;;;;;;;5.78;3.00;;;;;;;;;;5052667;28;20024;-55
2021/07/12 13:09:03;;;;;;;12.35;3.20;;;;;;;;;;5052677;28;20032;-56
2021/07/12 13:11:28;;;;;;;2.78;2.35;;;;;;;;;;5052372;28;20527;-54
2021/07/12 13:13:57;;;;;;;2.72;2.30;;;;;;;;;;5052327;28;20036;-56
2021/07/12 13:16:26;;;;;;;2.63;2.38;;;;;;;;;;5050953;28;20496;-55
2021/07/12 13:18:51;;;;;;;8.70;2.38;;;;;;;;;;5052359;28;20939;-54
2021/07/12 13:21:16;;;;;;;3.92;3.05;;;;;;;;;;5052292;28;20100;-55
2021/07/12 13:23:45;;;;;;;6.88;3.58;;;;;;;;;;5052479;28;20052;-56
2021/07/12 13:26:12;;;;;;;3.05;1.98;;;;;;;;;;5052199;28;20017;-55
2021/07/12 13:28:38;;;;;;;6.40;2.72;;;;;;;;;;5052071;28;20056;-55
2021/07/12 13:31:04;;;;;;;4.47;2.63;;;;;;;;;;5052159;28;20021;-56
2021/07/12 13:33:29;;;;;;;2.35;2.15;;;;;;;;;;5052292;28;20041;-55
2021/07/12 13:35:56;;;;;;;3.55;2.40;;;;;;;;;;5052052;28;20021;-54
2021/07/12 13:38:21;;;;;;;5.38;2.60;;;;;;;;;;5052116;28;20037;-54
2021/07/12 13:40:47;;;;;;;5.30;2.63;;;;;;;;;;5051848;28;20021;-55
2021/07/12 13:43:12;;;;;;;2.30;2.10;;;;;;;;;;5050864;28;20039;-55
2021/07/12 13:45:38;;;;;;;2.88;2.55;;;;;;;;;;5051914;28;20071;-54
2021/07/12 13:48:04;;;;;;;3.30;2.10;;;;;;;;;;5052231;28;20470;-54
2021/07/12 13:50:30;;;;;;;4.00;2.47;;;;;;;;;;5052049;28;20479;-54
2021/07/12 13:52:58;;;;;;;5.25;2.58;;;;;;;;;;5051942;28;20025;-54
2021/07/12 13:55:23;;;;;;;3.13;1.95;;;;;;;;;;5052194;28;20055;-55
2021/07/12 13:57:50;;;;;;;3.53;2.33;;;;;;;;;;5051782;28;20471;-54
2021/07/12 14:00:16;;;;;;;4.65;2.95;;;;;;;;;;5052237;28;20028;-53
2021/07/12 14:02:42;;;;;;;4.22;2.40;;;;;;;;;;5050509;28;20037;-55
2021/07/12 14:05:08;;;;;;;4.47;2.30;;;;;;;;;;5052095;28;20028;-54
2021/07/12 14:07:34;;;;;;;2.30;2.05;;;;;;;;;;5052076;28;20036;-54
2021/07/12 14:09:59;;;;;;;3.35;2.28;;;;;;;;;;5054181;28;20017;-54
2021/07/12 14:12:25;;;;;;;10.95;2.50;;;;;;;;;;5055741;28;20047;-57
2021/07/12 14:14:50;;;;;;;2.60;2.40;;;;;;;;;;5055541;28;20067;-54
2021/07/12 14:17:16;;;;;;;2.30;2.00;;;;;;;;;;5055405;28;20028;-54
2021/07/12 14:19:42;;;;;;;2.75;2.47;;;;;;;;;;5055441;28;20100;-54
2021/07/12 14:22:08;;;;;;;4.28;2.67;;;;;;;;;;5055431;28;20028;-54
2021/07/12 14:24:33;;;;;;;2.97;2.47;;;;;;;;;;5055314;28;20025;-55
2021/07/12 14:26:59;;;;;;;3.47;2.70;;;;;;;;;;5055471;28;20029;-53
2021/07/12 14:29:24;;;;;;;2.13;1.90;;;;;;;;;;5055555;28;20031;-54
2021/07/12 14:31:50;;;;;;;2.83;2.30;;;;;;;;;;5055266;28;20383;-55
2021/07/12 14:34:16;;;;;;;4.88;2.72;;;;;;;;;;5055602;28;20024;-55
2021/07/12 14:36:41;;;;;;;3.42;2.40;;;;;;;;;;5055321;28;20040;-54
2021/07/12 14:39:07;;;;;;;6.78;2.08;;;;;;;;;;5055389;28;20044;-54
2021/07/12 14:41:33;;;;;;;2.63;2.28;;;;;;;;;;5055340;28;20037;-54
2021/07/12 14:43:59;;;;;;;1.92;1.70;;;;;;;;;;5055113;28;20486;-55
2021/07/12 14:46:24;;;;;;;6.50;2.22;;;;;;;;;;5055041;28;20100;-55
2021/07/12 14:48:50;;;;;;;2.97;2.50;;;;;;;;;;5055122;28;20051;-55